sensor_id;sensor_type;location;lat;lon;timestamp;P1;durP1;ratioP1;P2;durP2;ratioP2
18048;SDS011;9149;47.002;8.604;2023-09-07T00:00:06;8.70;;;5.40;;
18048;SDS011;9149;47.002;8.604;2023-09-07T00:02:37;11.38;;;5.13;;
18048;SDS011;9149;47.002;8.604;2023-09-07T00:05:08;12.07;;;5.28;;
18048;SDS011;9149;47.002;8.604;2023-09-07T00:07:36;11.38;;;5.47;;
18048;SDS011;9149;47.002;8.604;2023-09-07T00:10:04;9.00;;;5.13;;
18048;SDS011;9149;47.002;8.604;2023-09-07T00:12:33;8.05;;;5.28;;
18048;SDS011;9149;47.002;8.604;2023-09-07T00:15:01;8.98;;;5.22;;
18048;SDS011;9149;47.002;8.604;2023-09-07T00:17:29;13.18;;;5.35;;
18048;SDS011;9149;47.002;8.604;2023-09-07T00:19:57;6.25;;;4.55;;
18048;SDS011;9149;47.002;8.604;2023-09-07T00:22:25;8.32;;;5.25;;
18048;SDS011;9149;47.002;8.604;2023-09-07T00:24:53;9.90;;;4.75;;
18048;SDS011;9149;47.002;8.604;2023-09-07T00:27:20;7.68;;;5.22;;
18048;SDS011;9149;47.002;8.604;2023-09-07T00:29:49;6.38;;;4.78;;
18048;SDS011;9149;47.002;8.604;2023-09-07T00:32:17;6.80;;;4.68;;
18048;SDS011;9149;47.002;8.604;2023-09-07T00:34:45;8.50;;;5.15;;
18048;SDS011;9149;47.002;8.604;2023-09-07T00:37:13;9.40;;;5.95;;
18048;SDS011;9149;47.002;8.604;2023-09-07T00:39:40;8.85;;;5.50;;
18048;SDS011;9149;47.002;8.604;2023-09-07T00:42:08;8.85;;;5.85;;
18048;SDS011;9149;47.002;8.604;2023-09-07T00:44:36;10.95;;;5.28;;
18048;SDS011;9149;47.002;8.604;2023-09-07T00:47:05;8.38;;;4.95;;
18048;SDS011;9149;47.002;8.604;2023-09-07T00:49:32;8.00;;;5.10;;
18048;SDS011;9149;47.002;8.604;2023-09-07T00:52:00;12.55;;;5.63;;
18048;SDS011;9149;47.002;8.604;2023-09-07T00:54:40;7.65;;;4.88;;
18048;SDS011;9149;47.002;8.604;2023-09-07T00:57:08;10.73;;;6.00;;
18048;SDS011;9149;47.002;8.604;2023-09-07T00:59:36;9.90;;;6.07;;
18048;SDS011;9149;47.002;8.604;2023-09-07T01:02:05;9.70;;;6.05;;
18048;SDS011;9149;47.002;8.604;2023-09-07T01:04:33;9.45;;;5.53;;
18048;SDS011;9149;47.002;8.604;2023-09-07T01:07:02;8.75;;;5.78;;
18048;SDS011;9149;47.002;8.604;2023-09-07T01:09:30;15.55;;;5.88;;
18048;SDS011;9149;47.002;8.604;2023-09-07T01:11:59;8.55;;;5.07;;
18048;SDS011;9149;47.002;8.604;2023-09-07T01:14:27;9.15;;;5.68;;
18048;SDS011;9149;47.002;8.604;2023-09-07T01:16:55;11.23;;;5.68;;
18048;SDS011;9149;47.002;8.604;2023-09-07T01:19:24;10.25;;;6.10;;
18048;SDS011;9149;47.002;8.604;2023-09-07T01:21:53;9.10;;;6.05;;
18048;SDS011;9149;47.002;8.604;2023-09-07T01:24:21;19.45;;;6.32;;
18048;SDS011;9149;47.002;8.604;2023-09-07T01:26:49;9.57;;;5.55;;
18048;SDS011;9149;47.002;8.604;2023-09-07T01:29:18;11.63;;;6.32;;
18048;SDS011;9149;47.002;8.604;2023-09-07T01:31:46;9.68;;;5.28;;
18048;SDS011;9149;47.002;8.604;2023-09-07T01:34:14;9.70;;;5.63;;
18048;SDS011;9149;47.002;8.604;2023-09-07T01:36:42;11.27;;;6.13;;
18048;SDS011;9149;47.002;8.604;2023-09-07T01:39:11;9.43;;;6.07;;
18048;SDS011;9149;47.002;8.604;2023-09-07T01:41:38;9.38;;;5.90;;
18048;SDS011;9149;47.002;8.604;2023-09-07T01:44:06;10.10;;;6.10;;
18048;SDS011;9149;47.002;8.604;2023-09-07T01:46:34;16.10;;;6.03;;
18048;SDS011;9149;47.002;8.604;2023-09-07T01:49:02;8.40;;;5.30;;
18048;SDS011;9149;47.002;8.604;2023-09-07T01:51:30;12.02;;;5.85;;
18048;SDS011;9149;47.002;8.604;2023-09-07T01:53:58;11.20;;;5.70;;
18048;SDS011;9149;47.002;8.604;2023-09-07T01:56:26;12.98;;;6.53;;
18048;SDS011;9149;47.002;8.604;2023-09-07T01:58:54;8.05;;;5.45;;
18048;SDS011;9149;47.002;8.604;2023-09-07T02:01:23;10.07;;;6.00;;
18048;SDS011;9149;47.002;8.604;2023-09-07T02:03:50;10.20;;;5.18;;
18048;SDS011;9149;47.002;8.604;2023-09-07T02:06:18;10.30;;;5.55;;
18048;SDS011;9149;47.002;8.604;2023-09-07T02:08:46;20.75;;;5.68;;
18048;SDS011;9149;47.002;8.604;2023-09-07T02:11:14;10.05;;;4.90;;
18048;SDS011;9149;47.002;8.604;2023-09-07T02:13:43;7.68;;;4.93;;
18048;SDS011;9149;47.002;8.604;2023-09-07T02:16:11;7.65;;;5.28;;
18048;SDS011;9149;47.002;8.604;2023-09-07T02:18:39;19.90;;;6.07;;
18048;SDS011;9149;47.002;8.604;2023-09-07T02:21:09;14.05;;;6.10;;
18048;SDS011;9149;47.002;8.604;2023-09-07T02:23:37;13.30;;;5.88;;
18048;SDS011;9149;47.002;8.604;2023-09-07T02:26:05;9.73;;;5.68;;
18048;SDS011;9149;47.002;8.604;2023-09-07T02:28:33;12.45;;;6.30;;
18048;SDS011;9149;47.002;8.604;2023-09-07T02:31:03;8.60;;;6.05;;
18048;SDS011;9149;47.002;8.604;2023-09-07T02:33:32;10.57;;;6.07;;
18048;SDS011;9149;47.002;8.604;2023-09-07T02:36:00;12.63;;;6.03;;
18048;SDS011;9149;47.002;8.604;2023-09-07T02:38:29;11.68;;;5.53;;
18048;SDS011;9149;47.002;8.604;2023-09-07T02:40:58;9.30;;;5.75;;
18048;SDS011;9149;47.002;8.604;2023-09-07T02:43:26;10.82;;;5.95;;
18048;SDS011;9149;47.002;8.604;2023-09-07T02:45:54;9.40;;;5.70;;
18048;SDS011;9149;47.002;8.604;2023-09-07T02:48:23;8.43;;;5.50;;
18048;SDS011;9149;47.002;8.604;2023-09-07T02:50:51;8.60;;;5.70;;
18048;SDS011;9149;47.002;8.604;2023-09-07T02:53:22;12.85;;;5.70;;
18048;SDS011;9149;47.002;8.604;2023-09-07T02:55:50;12.63;;;6.25;;
18048;SDS011;9149;47.002;8.604;2023-09-07T02:58:18;10.55;;;6.10;;
18048;SDS011;9149;47.002;8.604;2023-09-07T03:00:46;8.95;;;6.18;;
18048;SDS011;9149;47.002;8.604;2023-09-07T03:03:17;9.30;;;5.70;;
18048;SDS011;9149;47.002;8.604;2023-09-07T03:05:47;9.02;;;5.82;;
18048;SDS011;9149;47.002;8.604;2023-09-07T03:08:15;12.38;;;6.22;;
18048;SDS011;9149;47.002;8.604;2023-09-07T03:10:43;11.13;;;5.50;;
18048;SDS011;9149;47.002;8.604;2023-09-07T03:13:11;8.88;;;5.50;;
18048;SDS011;9149;47.002;8.604;2023-09-07T03:15:39;12.35;;;6.18;;
18048;SDS011;9149;47.002;8.604;2023-09-07T03:18:11;9.23;;;5.63;;
18048;SDS011;9149;47.002;8.604;2023-09-07T03:20:40;11.90;;;5.63;;
18048;SDS011;9149;47.002;8.604;2023-09-07T03:23:09;13.35;;;5.82;;
18048;SDS011;9149;47.002;8.604;2023-09-07T03:25:36;11.40;;;6.05;;
18048;SDS011;9149;47.002;8.604;2023-09-07T03:28:04;13.38;;;6.07;;
18048;SDS011;9149;47.002;8.604;2023-09-07T03:30:34;12.20;;;6.15;;
18048;SDS011;9149;47.002;8.604;2023-09-07T03:33:04;9.65;;;5.47;;
18048;SDS011;9149;47.002;8.604;2023-09-07T03:35:31;9.95;;;5.82;;
18048;SDS011;9149;47.002;8.604;2023-09-07T03:37:59;14.98;;;5.90;;
18048;SDS011;9149;47.002;8.604;2023-09-07T03:40:28;10.55;;;5.53;;
18048;SDS011;9149;47.002;8.604;2023-09-07T03:42:57;8.32;;;5.45;;
18048;SDS011;9149;47.002;8.604;2023-09-07T03:45:26;10.57;;;5.75;;
18048;SDS011;9149;47.002;8.604;2023-09-07T03:47:53;9.65;;;5.63;;
18048;SDS011;9149;47.002;8.604;2023-09-07T03:50:21;8.82;;;5.40;;
18048;SDS011;9149;47.002;8.604;2023-09-07T03:52:49;8.18;;;4.47;;
18048;SDS011;9149;47.002;8.604;2023-09-07T03:55:17;7.13;;;4.55;;
18048;SDS011;9149;47.002;8.604;2023-09-07T03:57:51;7.43;;;4.63;;
18048;SDS011;9149;47.002;8.604;2023-09-07T04:00:18;7.00;;;4.60;;
18048;SDS011;9149;47.002;8.604;2023-09-07T04:02:47;9.65;;;4.22;;
18048;SDS011;9149;47.002;8.604;2023-09-07T04:05:34;6.57;;;4.00;;
18048;SDS011;9149;47.002;8.604;2023-09-07T04:08:04;6.63;;;3.95;;
18048;SDS011;9149;47.002;8.604;2023-09-07T04:10:31;5.93;;;3.95;;
18048;SDS011;9149;47.002;8.604;2023-09-07T04:13:00;7.78;;;3.97;;
18048;SDS011;9149;47.002;8.604;2023-09-07T04:15:29;5.85;;;3.97;;
18048;SDS011;9149;47.002;8.604;2023-09-07T04:17:58;7.28;;;3.78;;
18048;SDS011;9149;47.002;8.604;2023-09-07T04:20:26;8.82;;;4.10;;
18048;SDS011;9149;47.002;8.604;2023-09-07T04:22:55;7.68;;;3.95;;
18048;SDS011;9149;47.002;8.604;2023-09-07T04:25:23;9.95;;;4.47;;
18048;SDS011;9149;47.002;8.604;2023-09-07T04:27:52;9.40;;;4.40;;
18048;SDS011;9149;47.002;8.604;2023-09-07T04:30:21;6.85;;;4.28;;
18048;SDS011;9149;47.002;8.604;2023-09-07T04:32:49;8.35;;;4.97;;
18048;SDS011;9149;47.002;8.604;2023-09-07T04:35:17;9.13;;;5.30;;
18048;SDS011;9149;47.002;8.604;2023-09-07T04:37:45;8.75;;;4.93;;
18048;SDS011;9149;47.002;8.604;2023-09-07T04:40:13;8.02;;;5.28;;
18048;SDS011;9149;47.002;8.604;2023-09-07T04:42:41;10.13;;;5.22;;
18048;SDS011;9149;47.002;8.604;2023-09-07T04:45:09;9.93;;;5.38;;
18048;SDS011;9149;47.002;8.604;2023-09-07T04:47:38;9.30;;;5.13;;
18048;SDS011;9149;47.002;8.604;2023-09-07T04:50:06;11.93;;;5.32;;
18048;SDS011;9149;47.002;8.604;2023-09-07T04:55:21;7.50;;;4.80;;
18048;SDS011;9149;47.002;8.604;2023-09-07T04:57:49;12.90;;;5.30;;
18048;SDS011;9149;47.002;8.604;2023-09-07T05:00:17;7.78;;;5.20;;
18048;SDS011;9149;47.002;8.604;2023-09-07T05:02:46;7.90;;;5.13;;
18048;SDS011;9149;47.002;8.604;2023-09-07T05:05:14;10.23;;;5.65;;
18048;SDS011;9149;47.002;8.604;2023-09-07T05:07:42;8.35;;;5.38;;
18048;SDS011;9149;47.002;8.604;2023-09-07T05:10:10;10.63;;;5.13;;
18048;SDS011;9149;47.002;8.604;2023-09-07T05:12:39;12.55;;;5.30;;
18048;SDS011;9149;47.002;8.604;2023-09-07T05:15:08;14.68;;;4.68;;
18048;SDS011;9149;47.002;8.604;2023-09-07T05:17:54;9.60;;;5.07;;
18048;SDS011;9149;47.002;8.604;2023-09-07T05:20:22;9.88;;;5.25;;
18048;SDS011;9149;47.002;8.604;2023-09-07T05:22:50;10.73;;;5.40;;
18048;SDS011;9149;47.002;8.604;2023-09-07T05:25:18;12.70;;;4.93;;
18048;SDS011;9149;47.002;8.604;2023-09-07T05:27:46;7.32;;;4.65;;
18048;SDS011;9149;47.002;8.604;2023-09-07T05:30:15;7.50;;;4.47;;
18048;SDS011;9149;47.002;8.604;2023-09-07T05:32:44;11.60;;;4.63;;
18048;SDS011;9149;47.002;8.604;2023-09-07T05:35:14;11.38;;;4.88;;
18048;SDS011;9149;47.002;8.604;2023-09-07T05:37:43;8.57;;;5.30;;
18048;SDS011;9149;47.002;8.604;2023-09-07T05:40:13;7.65;;;4.65;;
18048;SDS011;9149;47.002;8.604;2023-09-07T05:42:41;20.27;;;5.57;;
18048;SDS011;9149;47.002;8.604;2023-09-07T05:45:08;10.73;;;5.38;;
18048;SDS011;9149;47.002;8.604;2023-09-07T05:47:36;9.15;;;4.30;;
18048;SDS011;9149;47.002;8.604;2023-09-07T05:50:05;7.18;;;4.50;;
18048;SDS011;9149;47.002;8.604;2023-09-07T05:52:35;7.07;;;4.20;;
18048;SDS011;9149;47.002;8.604;2023-09-07T05:55:03;11.15;;;5.03;;
18048;SDS011;9149;47.002;8.604;2023-09-07T05:57:31;8.27;;;5.20;;
18048;SDS011;9149;47.002;8.604;2023-09-07T05:59:59;10.02;;;5.45;;
18048;SDS011;9149;47.002;8.604;2023-09-07T06:02:28;15.18;;;5.22;;
18048;SDS011;9149;47.002;8.604;2023-09-07T06:04:56;10.07;;;5.00;;
18048;SDS011;9149;47.002;8.604;2023-09-07T06:07:24;12.30;;;5.90;;
18048;SDS011;9149;47.002;8.604;2023-09-07T06:09:53;7.45;;;4.53;;
18048;SDS011;9149;47.002;8.604;2023-09-07T06:12:20;8.50;;;4.78;;
18048;SDS011;9149;47.002;8.604;2023-09-07T06:14:48;15.23;;;5.10;;
18048;SDS011;9149;47.002;8.604;2023-09-07T06:17:16;17.25;;;5.25;;
18048;SDS011;9149;47.002;8.604;2023-09-07T06:22:31;9.10;;;4.47;;
18048;SDS011;9149;47.002;8.604;2023-09-07T06:25:01;13.13;;;5.30;;
18048;SDS011;9149;47.002;8.604;2023-09-07T06:27:29;13.40;;;5.20;;
18048;SDS011;9149;47.002;8.604;2023-09-07T06:29:57;10.27;;;4.95;;
18048;SDS011;9149;47.002;8.604;2023-09-07T06:32:25;10.18;;;4.90;;
18048;SDS011;9149;47.002;8.604;2023-09-07T06:34:52;9.80;;;5.15;;
18048;SDS011;9149;47.002;8.604;2023-09-07T06:37:20;11.10;;;4.22;;
18048;SDS011;9149;47.002;8.604;2023-09-07T06:39:51;9.05;;;4.32;;
18048;SDS011;9149;47.002;8.604;2023-09-07T06:42:20;9.30;;;4.78;;
18048;SDS011;9149;47.002;8.604;2023-09-07T06:44:56;11.10;;;4.80;;
18048;SDS011;9149;47.002;8.604;2023-09-07T06:47:23;11.20;;;5.03;;
18048;SDS011;9149;47.002;8.604;2023-09-07T06:49:51;10.80;;;4.70;;
18048;SDS011;9149;47.002;8.604;2023-09-07T06:52:20;8.48;;;4.15;;
18048;SDS011;9149;47.002;8.604;2023-09-07T06:54:50;6.55;;;4.20;;
18048;SDS011;9149;47.002;8.604;2023-09-07T06:57:19;13.57;;;4.50;;
18048;SDS011;9149;47.002;8.604;2023-09-07T06:59:48;11.57;;;4.47;;
18048;SDS011;9149;47.002;8.604;2023-09-07T07:02:15;7.63;;;3.95;;
18048;SDS011;9149;47.002;8.604;2023-09-07T07:04:43;8.60;;;4.20;;
18048;SDS011;9149;47.002;8.604;2023-09-07T07:07:14;6.68;;;4.13;;
18048;SDS011;9149;47.002;8.604;2023-09-07T07:09:42;9.35;;;3.70;;
18048;SDS011;9149;47.002;8.604;2023-09-07T07:12:09;4.70;;;3.55;;
18048;SDS011;9149;47.002;8.604;2023-09-07T07:14:40;7.18;;;3.70;;
18048;SDS011;9149;47.002;8.604;2023-09-07T07:17:08;7.88;;;3.58;;
18048;SDS011;9149;47.002;8.604;2023-09-07T07:19:36;7.55;;;4.90;;
18048;SDS011;9149;47.002;8.604;2023-09-07T07:22:04;5.80;;;3.95;;
18048;SDS011;9149;47.002;8.604;2023-09-07T07:24:33;5.60;;;3.60;;
18048;SDS011;9149;47.002;8.604;2023-09-07T07:27:01;5.80;;;3.35;;
18048;SDS011;9149;47.002;8.604;2023-09-07T07:29:32;8.15;;;4.00;;
18048;SDS011;9149;47.002;8.604;2023-09-07T07:32:02;5.68;;;3.72;;
18048;SDS011;9149;47.002;8.604;2023-09-07T07:34:31;9.32;;;4.15;;
18048;SDS011;9149;47.002;8.604;2023-09-07T07:37:00;10.32;;;4.00;;
18048;SDS011;9149;47.002;8.604;2023-09-07T07:39:27;8.65;;;3.90;;
18048;SDS011;9149;47.002;8.604;2023-09-07T07:41:55;7.13;;;3.50;;
18048;SDS011;9149;47.002;8.604;2023-09-07T07:44:23;6.72;;;4.07;;
18048;SDS011;9149;47.002;8.604;2023-09-07T07:46:51;5.93;;;3.97;;
18048;SDS011;9149;47.002;8.604;2023-09-07T07:49:20;5.25;;;3.47;;
18048;SDS011;9149;47.002;8.604;2023-09-07T07:51:48;5.80;;;3.60;;
18048;SDS011;9149;47.002;8.604;2023-09-07T07:54:16;9.90;;;4.07;;
18048;SDS011;9149;47.002;8.604;2023-09-07T07:56:44;5.82;;;3.42;;
18048;SDS011;9149;47.002;8.604;2023-09-07T07:59:12;7.45;;;4.45;;
18048;SDS011;9149;47.002;8.604;2023-09-07T08:01:39;6.22;;;3.50;;
18048;SDS011;9149;47.002;8.604;2023-09-07T08:04:07;9.57;;;3.65;;
18048;SDS011;9149;47.002;8.604;2023-09-07T08:06:37;5.82;;;3.45;;
18048;SDS011;9149;47.002;8.604;2023-09-07T08:09:04;7.68;;;3.70;;
18048;SDS011;9149;47.002;8.604;2023-09-07T08:11:32;8.73;;;3.08;;
18048;SDS011;9149;47.002;8.604;2023-09-07T08:14:00;6.95;;;3.15;;
18048;SDS011;9149;47.002;8.604;2023-09-07T08:16:29;5.20;;;3.00;;
18048;SDS011;9149;47.002;8.604;2023-09-07T08:18:57;3.30;;;2.80;;
18048;SDS011;9149;47.002;8.604;2023-09-07T08:21:25;6.40;;;3.53;;
18048;SDS011;9149;47.002;8.604;2023-09-07T08:23:54;4.20;;;3.00;;
18048;SDS011;9149;47.002;8.604;2023-09-07T08:26:22;6.63;;;3.20;;
18048;SDS011;9149;47.002;8.604;2023-09-07T08:28:50;5.47;;;3.20;;
18048;SDS011;9149;47.002;8.604;2023-09-07T08:31:17;7.72;;;3.30;;
18048;SDS011;9149;47.002;8.604;2023-09-07T08:33:49;5.22;;;3.63;;
18048;SDS011;9149;47.002;8.604;2023-09-07T08:36:18;16.77;;;3.60;;
18048;SDS011;9149;47.002;8.604;2023-09-07T08:38:50;4.93;;;3.13;;
18048;SDS011;9149;47.002;8.604;2023-09-07T08:41:21;7.25;;;3.35;;
18048;SDS011;9149;47.002;8.604;2023-09-07T08:43:49;6.63;;;3.30;;
18048;SDS011;9149;47.002;8.604;2023-09-07T08:46:20;5.70;;;3.55;;
18048;SDS011;9149;47.002;8.604;2023-09-07T08:48:49;4.07;;;2.92;;
18048;SDS011;9149;47.002;8.604;2023-09-07T08:51:17;5.72;;;3.40;;
18048;SDS011;9149;47.002;8.604;2023-09-07T08:53:46;5.28;;;3.47;;
18048;SDS011;9149;47.002;8.604;2023-09-07T08:56:14;4.97;;;3.15;;
18048;SDS011;9149;47.002;8.604;2023-09-07T08:58:43;5.43;;;3.65;;
18048;SDS011;9149;47.002;8.604;2023-09-07T09:01:12;5.97;;;3.90;;
18048;SDS011;9149;47.002;8.604;2023-09-07T09:03:40;5.72;;;3.35;;
18048;SDS011;9149;47.002;8.604;2023-09-07T09:06:10;7.55;;;3.45;;
18048;SDS011;9149;47.002;8.604;2023-09-07T09:08:42;4.90;;;3.40;;
18048;SDS011;9149;47.002;8.604;2023-09-07T09:11:09;5.57;;;3.97;;
18048;SDS011;9149;47.002;8.604;2023-09-07T09:13:39;6.18;;;3.85;;
18048;SDS011;9149;47.002;8.604;2023-09-07T09:16:08;7.97;;;3.50;;
18048;SDS011;9149;47.002;8.604;2023-09-07T09:18:36;5.55;;;3.72;;
18048;SDS011;9149;47.002;8.604;2023-09-07T09:21:04;4.65;;;3.30;;
18048;SDS011;9149;47.002;8.604;2023-09-07T09:23:34;5.10;;;3.22;;
18048;SDS011;9149;47.002;8.604;2023-09-07T09:26:02;5.93;;;3.35;;
18048;SDS011;9149;47.002;8.604;2023-09-07T09:28:31;8.75;;;3.63;;
18048;SDS011;9149;47.002;8.604;2023-09-07T09:31:00;6.43;;;3.60;;
18048;SDS011;9149;47.002;8.604;2023-09-07T09:33:31;5.60;;;3.97;;
18048;SDS011;9149;47.002;8.604;2023-09-07T09:35:59;4.50;;;3.40;;
18048;SDS011;9149;47.002;8.604;2023-09-07T09:38:28;5.53;;;3.53;;
18048;SDS011;9149;47.002;8.604;2023-09-07T09:40:58;5.38;;;3.72;;
18048;SDS011;9149;47.002;8.604;2023-09-07T09:43:26;9.30;;;3.47;;
18048;SDS011;9149;47.002;8.604;2023-09-07T09:45:54;4.88;;;3.28;;
18048;SDS011;9149;47.002;8.604;2023-09-07T09:48:22;5.47;;;3.65;;
18048;SDS011;9149;47.002;8.604;2023-09-07T09:50:51;6.70;;;3.25;;
18048;SDS011;9149;47.002;8.604;2023-09-07T09:53:19;9.15;;;3.33;;
18048;SDS011;9149;47.002;8.604;2023-09-07T09:55:48;11.63;;;3.60;;
18048;SDS011;9149;47.002;8.604;2023-09-07T09:58:16;7.32;;;3.70;;
18048;SDS011;9149;47.002;8.604;2023-09-07T10:00:44;11.30;;;3.83;;
18048;SDS011;9149;47.002;8.604;2023-09-07T10:03:12;8.88;;;3.78;;
18048;SDS011;9149;47.002;8.604;2023-09-07T10:05:43;5.18;;;3.45;;
18048;SDS011;9149;47.002;8.604;2023-09-07T10:08:13;4.78;;;3.22;;
18048;SDS011;9149;47.002;8.604;2023-09-07T10:10:42;6.03;;;3.92;;
18048;SDS011;9149;47.002;8.604;2023-09-07T10:13:12;7.13;;;3.80;;
18048;SDS011;9149;47.002;8.604;2023-09-07T10:15:40;4.80;;;3.38;;
18048;SDS011;9149;47.002;8.604;2023-09-07T10:18:09;4.65;;;3.47;;
18048;SDS011;9149;47.002;8.604;2023-09-07T10:23:17;5.18;;;3.20;;
18048;SDS011;9149;47.002;8.604;2023-09-07T10:25:48;10.82;;;3.78;;
18048;SDS011;9149;47.002;8.604;2023-09-07T10:28:17;5.57;;;3.25;;
18048;SDS011;9149;47.002;8.604;2023-09-07T10:30:45;6.38;;;3.40;;
18048;SDS011;9149;47.002;8.604;2023-09-07T10:33:19;6.90;;;3.17;;
18048;SDS011;9149;47.002;8.604;2023-09-07T10:35:46;5.47;;;3.58;;
18048;SDS011;9149;47.002;8.604;2023-09-07T10:38:14;7.90;;;4.38;;
18048;SDS011;9149;47.002;8.604;2023-09-07T10:41:02;4.57;;;3.35;;
18048;SDS011;9149;47.002;8.604;2023-09-07T10:43:32;6.30;;;3.65;;
18048;SDS011;9149;47.002;8.604;2023-09-07T10:46:00;7.53;;;3.72;;
18048;SDS011;9149;47.002;8.604;2023-09-07T10:48:29;5.88;;;3.30;;
18048;SDS011;9149;47.002;8.604;2023-09-07T10:50:57;6.50;;;3.53;;
18048;SDS011;9149;47.002;8.604;2023-09-07T10:53:26;5.35;;;3.42;;
18048;SDS011;9149;47.002;8.604;2023-09-07T10:55:56;5.03;;;3.10;;
18048;SDS011;9149;47.002;8.604;2023-09-07T10:58:26;5.25;;;3.15;;
18048;SDS011;9149;47.002;8.604;2023-09-07T11:00:56;5.10;;;3.53;;
18048;SDS011;9149;47.002;8.604;2023-09-07T11:03:26;6.07;;;3.53;;
18048;SDS011;9149;47.002;8.604;2023-09-07T11:05:54;7.10;;;4.10;;
18048;SDS011;9149;47.002;8.604;2023-09-07T11:08:23;4.93;;;3.58;;
18048;SDS011;9149;47.002;8.604;2023-09-07T11:10:51;5.15;;;3.25;;
18048;SDS011;9149;47.002;8.604;2023-09-07T11:13:19;4.75;;;3.30;;
18048;SDS011;9149;47.002;8.604;2023-09-07T11:15:48;5.60;;;3.60;;
18048;SDS011;9149;47.002;8.604;2023-09-07T11:18:19;5.30;;;3.42;;
18048;SDS011;9149;47.002;8.604;2023-09-07T11:20:46;6.03;;;3.50;;
18048;SDS011;9149;47.002;8.604;2023-09-07T11:23:14;5.15;;;3.55;;
18048;SDS011;9149;47.002;8.604;2023-09-07T11:25:43;8.68;;;3.83;;
18048;SDS011;9149;47.002;8.604;2023-09-07T11:28:10;5.78;;;3.38;;
18048;SDS011;9149;47.002;8.604;2023-09-07T11:30:49;6.97;;;3.83;;
18048;SDS011;9149;47.002;8.604;2023-09-07T11:33:17;8.48;;;4.40;;
18048;SDS011;9149;47.002;8.604;2023-09-07T11:35:45;9.65;;;4.70;;
18048;SDS011;9149;47.002;8.604;2023-09-07T11:38:14;8.65;;;4.28;;
18048;SDS011;9149;47.002;8.604;2023-09-07T11:40:41;8.05;;;4.47;;
18048;SDS011;9149;47.002;8.604;2023-09-07T11:43:11;6.10;;;4.28;;
18048;SDS011;9149;47.002;8.604;2023-09-07T11:45:39;8.82;;;5.05;;
18048;SDS011;9149;47.002;8.604;2023-09-07T11:48:09;7.57;;;4.22;;
18048;SDS011;9149;47.002;8.604;2023-09-07T11:50:37;5.35;;;3.78;;
18048;SDS011;9149;47.002;8.604;2023-09-07T11:53:06;8.02;;;3.92;;
18048;SDS011;9149;47.002;8.604;2023-09-07T11:55:35;7.93;;;3.92;;
18048;SDS011;9149;47.002;8.604;2023-09-07T11:58:04;8.15;;;4.30;;
18048;SDS011;9149;47.002;8.604;2023-09-07T12:00:32;5.18;;;3.85;;
18048;SDS011;9149;47.002;8.604;2023-09-07T12:02:59;6.45;;;3.78;;
18048;SDS011;9149;47.002;8.604;2023-09-07T12:05:28;5.80;;;4.18;;
18048;SDS011;9149;47.002;8.604;2023-09-07T12:07:56;11.05;;;4.43;;
18048;SDS011;9149;47.002;8.604;2023-09-07T12:10:24;8.23;;;4.70;;
18048;SDS011;9149;47.002;8.604;2023-09-07T12:12:52;7.95;;;4.18;;
18048;SDS011;9149;47.002;8.604;2023-09-07T12:15:20;7.45;;;4.60;;
18048;SDS011;9149;47.002;8.604;2023-09-07T12:17:47;6.57;;;4.28;;
18048;SDS011;9149;47.002;8.604;2023-09-07T12:20:21;11.02;;;4.95;;
18048;SDS011;9149;47.002;8.604;2023-09-07T12:22:50;7.25;;;5.00;;
18048;SDS011;9149;47.002;8.604;2023-09-07T12:25:17;7.68;;;4.65;;
18048;SDS011;9149;47.002;8.604;2023-09-07T12:27:45;10.27;;;4.88;;
18048;SDS011;9149;47.002;8.604;2023-09-07T12:30:17;10.40;;;4.20;;
18048;SDS011;9149;47.002;8.604;2023-09-07T12:32:46;7.82;;;4.47;;
18048;SDS011;9149;47.002;8.604;2023-09-07T12:35:14;7.40;;;4.75;;
18048;SDS011;9149;47.002;8.604;2023-09-07T12:37:42;6.82;;;4.43;;
18048;SDS011;9149;47.002;8.604;2023-09-07T12:40:12;6.13;;;4.13;;
18048;SDS011;9149;47.002;8.604;2023-09-07T12:42:41;6.18;;;4.05;;
18048;SDS011;9149;47.002;8.604;2023-09-07T12:45:09;5.57;;;3.92;;
18048;SDS011;9149;47.002;8.604;2023-09-07T12:47:38;5.00;;;3.45;;
18048;SDS011;9149;47.002;8.604;2023-09-07T12:50:06;6.05;;;4.40;;
18048;SDS011;9149;47.002;8.604;2023-09-07T12:52:34;8.13;;;3.78;;
18048;SDS011;9149;47.002;8.604;2023-09-07T12:55:04;8.18;;;4.20;;
18048;SDS011;9149;47.002;8.604;2023-09-07T12:57:34;7.45;;;4.18;;
18048;SDS011;9149;47.002;8.604;2023-09-07T13:00:03;5.78;;;4.10;;
18048;SDS011;9149;47.002;8.604;2023-09-07T13:02:31;5.40;;;4.13;;
18048;SDS011;9149;47.002;8.604;2023-09-07T13:04:58;6.15;;;4.45;;
18048;SDS011;9149;47.002;8.604;2023-09-07T13:07:26;13.52;;;4.50;;
18048;SDS011;9149;47.002;8.604;2023-09-07T13:09:54;9.32;;;4.20;;
18048;SDS011;9149;47.002;8.604;2023-09-07T13:12:22;9.10;;;4.10;;
18048;SDS011;9149;47.002;8.604;2023-09-07T13:14:50;9.00;;;3.88;;
18048;SDS011;9149;47.002;8.604;2023-09-07T13:17:18;7.82;;;4.47;;
18048;SDS011;9149;47.002;8.604;2023-09-07T13:19:46;6.07;;;4.20;;
18048;SDS011;9149;47.002;8.604;2023-09-07T13:22:14;6.32;;;4.10;;
18048;SDS011;9149;47.002;8.604;2023-09-07T13:24:42;8.25;;;4.35;;
18048;SDS011;9149;47.002;8.604;2023-09-07T13:27:10;8.23;;;4.35;;
18048;SDS011;9149;47.002;8.604;2023-09-07T13:29:37;7.00;;;4.20;;
18048;SDS011;9149;47.002;8.604;2023-09-07T13:32:06;6.97;;;3.72;;
18048;SDS011;9149;47.002;8.604;2023-09-07T13:34:34;7.22;;;4.35;;
18048;SDS011;9149;47.002;8.604;2023-09-07T13:37:02;5.53;;;4.03;;
18048;SDS011;9149;47.002;8.604;2023-09-07T13:39:29;8.65;;;4.90;;
18048;SDS011;9149;47.002;8.604;2023-09-07T13:41:57;6.95;;;4.05;;
18048;SDS011;9149;47.002;8.604;2023-09-07T13:44:24;7.13;;;4.10;;
18048;SDS011;9149;47.002;8.604;2023-09-07T13:46:51;8.27;;;3.90;;
18048;SDS011;9149;47.002;8.604;2023-09-07T13:49:21;5.60;;;3.92;;
18048;SDS011;9149;47.002;8.604;2023-09-07T13:51:49;6.38;;;4.00;;
18048;SDS011;9149;47.002;8.604;2023-09-07T13:54:17;5.80;;;3.75;;
18048;SDS011;9149;47.002;8.604;2023-09-07T13:56:45;9.25;;;4.20;;
18048;SDS011;9149;47.002;8.604;2023-09-07T13:59:13;8.60;;;3.67;;
18048;SDS011;9149;47.002;8.604;2023-09-07T14:01:41;5.75;;;4.03;;
18048;SDS011;9149;47.002;8.604;2023-09-07T14:04:08;8.35;;;4.13;;
18048;SDS011;9149;47.002;8.604;2023-09-07T14:06:37;6.00;;;4.10;;
18048;SDS011;9149;47.002;8.604;2023-09-07T14:09:05;6.97;;;3.85;;
18048;SDS011;9149;47.002;8.604;2023-09-07T14:11:33;5.70;;;4.10;;
18048;SDS011;9149;47.002;8.604;2023-09-07T14:14:01;6.32;;;4.00;;
18048;SDS011;9149;47.002;8.604;2023-09-07T14:16:29;7.20;;;4.00;;
18048;SDS011;9149;47.002;8.604;2023-09-07T14:18:57;8.90;;;4.20;;
18048;SDS011;9149;47.002;8.604;2023-09-07T14:21:24;7.90;;;3.97;;
18048;SDS011;9149;47.002;8.604;2023-09-07T14:23:53;12.43;;;4.03;;
18048;SDS011;9149;47.002;8.604;2023-09-07T14:26:21;6.90;;;3.92;;
18048;SDS011;9149;47.002;8.604;2023-09-07T14:28:49;5.57;;;4.05;;
18048;SDS011;9149;47.002;8.604;2023-09-07T14:31:17;8.68;;;4.20;;
18048;SDS011;9149;47.002;8.604;2023-09-07T14:33:45;6.32;;;3.92;;
18048;SDS011;9149;47.002;8.604;2023-09-07T14:36:13;5.93;;;3.35;;
18048;SDS011;9149;47.002;8.604;2023-09-07T14:38:40;4.90;;;3.40;;
18048;SDS011;9149;47.002;8.604;2023-09-07T14:41:12;5.53;;;3.85;;
18048;SDS011;9149;47.002;8.604;2023-09-07T14:43:46;4.10;;;3.35;;
18048;SDS011;9149;47.002;8.604;2023-09-07T14:46:14;5.65;;;3.88;;
18048;SDS011;9149;47.002;8.604;2023-09-07T14:48:43;6.80;;;3.55;;
18048;SDS011;9149;47.002;8.604;2023-09-07T14:51:10;5.85;;;3.78;;
18048;SDS011;9149;47.002;8.604;2023-09-07T14:53:39;6.93;;;4.18;;
18048;SDS011;9149;47.002;8.604;2023-09-07T14:56:06;6.55;;;3.72;;
18048;SDS011;9149;47.002;8.604;2023-09-07T14:58:35;4.90;;;3.35;;
18048;SDS011;9149;47.002;8.604;2023-09-07T15:01:03;4.95;;;3.47;;
18048;SDS011;9149;47.002;8.604;2023-09-07T15:03:31;4.57;;;3.40;;
18048;SDS011;9149;47.002;8.604;2023-09-07T15:05:58;8.50;;;3.47;;
18048;SDS011;9149;47.002;8.604;2023-09-07T15:08:26;7.50;;;3.78;;
18048;SDS011;9149;47.002;8.604;2023-09-07T15:10:54;11.15;;;3.47;;
18048;SDS011;9149;47.002;8.604;2023-09-07T15:13:21;5.35;;;3.50;;